Time;durP1;ratioP1;P1;durP2;ratioP2;P2;SDS_P1;SDS_P2;PMS_P1;PMS_P2;Temp;Humidity;BMP_temperature;BMP_pressure;BME280_temperature;BME280_humidity;BME280_pressure;Samples;Min_cycle;Max_cycle;Signal;HPM_P1;HPM_P2
2021/08/13 00:02:41;;;;;;;33.47;24.38;;;;;17.80;101489.00;;;;9894340;29;20204;-77
2021/08/13 00:07:43;;;;;;;28.58;23.55;;;;;17.70;101490.00;;;;9907601;29;20218;-77
2021/08/13 00:12:45;;;;;;;31.38;22.17;;;;;17.70;101478.00;;;;9893740;29;20256;-76
2021/08/13 00:17:47;;;;;;;36.42;23.88;;;;;17.60;101494.00;;;;9878602;29;20248;-77
2021/08/13 00:22:52;;;;;;;42.47;24.80;;;;;17.50;101491.00;;;;9879004;29;20251;-77
2021/08/13 00:27:54;;;;;;;36.80;25.08;;;;;17.50;101497.00;;;;9864634;29;20212;-77
2021/08/13 00:32:56;;;;;;;34.85;25.15;;;;;17.50;101502.00;;;;9909098;29;20207;-76
2021/08/13 00:37:58;;;;;;;40.53;27.48;;;;;17.50;101502.00;;;;9892740;29;20934;-77
2021/08/13 00:43:01;;;;;;;36.53;25.83;;;;;17.50;101503.00;;;;9907992;29;20212;-77
2021/08/13 00:48:04;;;;;;;36.60;26.65;;;;;17.50;101511.00;;;;9878276;29;20605;-77
2021/08/13 00:53:22;;;;;;;35.10;25.38;;;;;17.40;101521.00;;;;9896078;29;20309;-77
2021/08/13 00:58:25;;;;;;;39.47;26.50;;;;;17.40;101517.00;;;;9944296;29;20234;-77
2021/08/13 01:03:39;;;;;;;43.45;26.98;;;;;17.40;101526.00;;;;9910404;29;20220;-78
2021/08/13 01:08:43;;;;;;;44.38;28.55;;;;;17.30;101526.00;;;;9867123;29;20196;-78
2021/08/13 01:14:01;;;;;;;42.58;26.50;;;;;17.30;101530.00;;;;9881846;29;20232;-78
2021/08/13 01:19:26;;;;;;;43.35;28.05;;;;;17.20;101514.00;;;;9881854;29;20314;-78
2021/08/13 01:24:32;;;;;;;43.05;28.60;;;;;17.20;101528.00;;;;9910567;29;20619;-78
2021/08/13 01:29:49;;;;;;;45.92;28.17;;;;;17.20;101532.00;;;;9882079;29;20244;-78
2021/08/13 01:34:58;;;;;;;45.63;29.48;;;;;17.20;101536.00;;;;9896492;29;20282;-78
2021/08/13 01:40:03;;;;;;;41.42;27.27;;;;;17.20;101531.00;;;;9881278;29;20228;-78
2021/08/13 01:45:08;;;;;;;43.47;27.33;;;;;17.20;101513.00;;;;9896462;29;20287;-79
2021/08/13 01:50:14;;;;;;;40.90;26.73;;;;;17.10;101523.00;;;;9910831;29;20844;-78
2021/08/13 01:55:18;;;;;;;44.73;27.70;;;;;17.10;101514.00;;;;9881613;29;20591;-79
2021/08/13 02:00:22;;;;;;;41.67;26.40;;;;;17.20;101509.00;;;;9881627;29;20235;-78
2021/08/13 02:05:30;;;;;;;42.35;26.30;;;;;17.10;101512.00;;;;9896449;29;20211;-77
2021/08/13 02:10:35;;;;;;;36.72;25.55;;;;;17.10;101520.00;;;;9880585;29;20223;-78
2021/08/13 02:15:43;;;;;;;41.25;26.45;;;;;17.10;101521.00;;;;9896379;29;20212;-78
2021/08/13 02:20:48;;;;;;;38.40;25.35;;;;;17.10;101519.00;;;;9899321;29;20238;-79
2021/08/13 02:25:50;;;;;;;39.53;23.20;;;;;17.10;101516.00;;;;9907929;29;20229;-79
2021/08/13 02:30:54;;;;;;;36.78;23.33;;;;;17.00;101513.00;;;;9917785;29;20256;-78
2021/08/13 02:36:07;;;;;;;33.72;22.67;;;;;17.00;101519.00;;;;9887819;29;20228;-78
2021/08/13 02:41:09;;;;;;;33.10;22.80;;;;;16.90;101520.00;;;;9916402;29;20314;-78
2021/08/13 02:46:14;;;;;;;33.00;22.52;;;;;16.80;101535.00;;;;9887402;29;20269;-77
2021/08/13 02:51:24;;;;;;;32.63;20.15;;;;;16.80;101526.00;;;;9900915;29;20754;-78
2021/08/13 02:56:30;;;;;;;33.53;19.45;;;;;16.80;101530.00;;;;9893741;29;20212;-78
2021/08/13 03:01:38;;;;;;;29.90;20.52;;;;;16.80;101534.00;;;;9916775;29;20684;-78
2021/08/13 03:06:42;;;;;;;32.60;19.90;;;;;16.80;101520.00;;;;9886303;29;20203;-79
2021/08/13 03:11:46;;;;;;;24.60;18.97;;;;;16.70;101515.00;;;;9885724;29;20204;-79
2021/08/13 03:16:53;;;;;;;25.53;16.67;;;;;16.60;101521.00;;;;9886436;29;20711;-78
2021/08/13 03:21:57;;;;;;;24.90;17.47;;;;;16.60;101522.00;;;;9901608;29;20207;-78
2021/08/13 03:27:01;;;;;;;25.53;15.83;;;;;16.60;101530.00;;;;9915734;29;20222;-78
2021/08/13 03:32:04;;;;;;;24.87;16.77;;;;;16.50;101531.00;;;;9899850;29;20203;-78
2021/08/13 03:37:07;;;;;;;27.50;17.97;;;;;16.40;101534.00;;;;9870815;29;20780;-78
2021/08/13 03:42:13;;;;;;;25.70;17.47;;;;;16.40;101526.00;;;;9871533;29;20203;-77
2021/08/13 03:47:15;;;;;;;24.30;17.07;;;;;16.30;101532.00;;;;9900004;29;20253;-78
2021/08/13 03:52:18;;;;;;;28.17;17.70;;;;;16.30;101531.00;;;;9886006;29;20248;-78
2021/08/13 03:57:21;;;;;;;25.17;17.90;;;;;16.20;101522.00;;;;9870928;29;20231;-78
2021/08/13 04:02:24;;;;;;;26.00;17.07;;;;;16.20;101508.00;;;;9899855;29;20196;-78
2021/08/13 04:07:28;;;;;;;31.93;17.97;;;;;16.20;101524.00;;;;9914216;29;20219;-78
2021/08/13 04:12:30;;;;;;;24.10;15.70;;;;;16.20;101533.00;;;;9914577;29;20233;-78
2021/08/13 04:17:48;;;;;;;27.27;15.33;;;;;16.10;101541.00;;;;9899386;29;20777;-78
2021/08/13 04:22:52;;;;;;;27.43;16.40;;;;;16.10;101537.00;;;;9884238;29;20237;-78
2021/08/13 04:27:55;;;;;;;25.63;16.63;;;;;16.20;101541.00;;;;9883609;29;20207;-77
2021/08/13 04:32:57;;;;;;;27.50;14.80;;;;;16.20;101550.00;;;;9899243;29;20276;-77
2021/08/13 04:37:59;;;;;;;21.97;14.20;;;;;16.30;101542.00;;;;9898494;29;20239;-77
2021/08/13 04:43:01;;;;;;;28.50;14.33;;;;;16.40;101556.00;;;;9898148;29;20622;-78
2021/08/13 04:48:04;;;;;;;24.90;13.00;;;;;16.50;101571.00;;;;9913184;29;20209;-78
2021/08/13 04:53:06;;;;;;;19.40;12.00;;;;;16.70;101572.00;;;;9898058;29;20216;-78
2021/08/13 04:58:09;;;;;;;27.07;12.00;;;;;16.70;101569.00;;;;9898195;29;20235;-78
2021/08/13 05:03:10;;;;;;;24.83;10.53;;;;;16.90;101572.00;;;;9883046;29;20215;-77
2021/08/13 05:08:22;;;;;;;14.85;10.00;;;;;17.10;101578.00;;;;9897107;29;20310;-77
2021/08/13 05:13:25;;;;;;;14.55;8.10;;;;;17.20;101595.00;;;;9883399;29;20264;-77
2021/08/13 05:18:27;;;;;;;12.20;7.78;;;;;17.30;101615.00;;;;9897156;29;20270;-78
2021/08/13 05:23:29;;;;;;;13.30;6.55;;;;;17.40;101598.00;;;;9888282;29;20629;-77
2021/08/13 05:28:31;;;;;;;9.48;5.65;;;;;17.50;101619.00;;;;9934688;29;20461;-78
2021/08/13 05:33:34;;;;;;;11.00;5.32;;;;;17.50;101606.00;;;;9884301;29;20226;-78
2021/08/13 05:38:36;;;;;;;10.18;4.93;;;;;17.60;101617.00;;;;9896503;29;20246;-77
2021/08/13 05:43:38;;;;;;;10.10;5.72;;;;;17.70;101629.00;;;;9882587;29;20265;-77
2021/08/13 05:48:40;;;;;;;8.65;4.88;;;;;17.90;101621.00;;;;9881304;29;20206;-77
2021/08/13 05:53:42;;;;;;;10.25;5.00;;;;;18.00;101629.00;;;;9881395;29;20214;-78
2021/08/13 05:58:44;;;;;;;9.95;5.03;;;;;18.20;101623.00;;;;9902898;29;20310;-79
2021/08/13 06:03:47;;;;;;;11.98;4.68;;;;;18.40;101613.00;;;;9887582;29;20211;-79
2021/08/13 06:08:49;;;;;;;13.70;4.50;;;;;18.50;101618.00;;;;9916822;29;20208;-79
2021/08/13 06:13:52;;;;;;;5.97;4.85;;;;;18.60;101619.00;;;;9900891;29;20239;-79
2021/08/13 06:18:54;;;;;;;8.75;4.72;;;;;18.60;101635.00;;;;9901949;29;20326;-79
2021/08/13 06:23:56;;;;;;;6.88;4.57;;;;;18.70;101638.00;;;;9901385;29;20280;-79
2021/08/13 06:28:58;;;;;;;7.70;4.75;;;;;18.80;101646.00;;;;9870560;29;20211;-78
2021/08/13 06:34:01;;;;;;;11.82;4.50;;;;;18.90;101638.00;;;;9869160;30;20218;-79
2021/08/13 06:39:03;;;;;;;6.55;4.78;;;;;19.10;101643.00;;;;9870838;29;20594;-79
2021/08/13 06:44:07;;;;;;;10.07;5.50;;;;;19.60;101644.00;;;;9833366;30;20294;-78
2021/08/13 06:49:09;;;;;;;7.13;5.40;;;;;20.00;101647.00;;;;9857521;30;20269;-79
2021/08/13 06:54:11;;;;;;;7.18;4.68;;;;;20.40;101646.00;;;;9914910;29;20627;-79
2021/08/13 06:59:13;;;;;;;6.95;4.97;;;;;20.70;101647.00;;;;9873845;29;20231;-79
2021/08/13 07:04:17;;;;;;;9.45;5.07;;;;;21.00;101642.00;;;;9858932;29;20219;-79
2021/08/13 07:09:20;;;;;;;8.55;4.97;;;;;21.60;101631.00;;;;9868866;29;20614;-78
2021/08/13 07:14:23;;;;;;;6.30;4.47;;;;;21.50;101641.00;;;;9861498;30;20212;-78
2021/08/13 07:19:26;;;;;;;6.15;4.43;;;;;21.70;101644.00;;;;9878035;29;20708;-79
2021/08/13 07:24:34;;;;;;;8.27;4.68;;;;;21.90;101649.00;;;;9888021;29;20340;-78
2021/08/13 07:29:36;;;;;;;5.85;4.35;;;;;22.00;101658.00;;;;9940088;29;20211;-79
2021/08/13 07:34:39;;;;;;;6.13;4.25;;;;;22.00;101668.00;;;;9898659;29;20218;-79
2021/08/13 07:39:41;;;;;;;5.75;4.55;;;;;22.50;101668.00;;;;9883527;29;20239;-80
2021/08/13 07:44:44;;;;;;;4.57;4.15;;;;;23.30;101670.00;;;;9873288;29;20214;-79
2021/08/13 07:49:47;;;;;;;5.95;3.95;;;;;23.20;101682.00;;;;9871606;30;20853;-80
2021/08/13 07:54:50;;;;;;;8.25;4.35;;;;;23.40;101687.00;;;;9895326;29;20208;-79
2021/08/13 07:59:53;;;;;;;4.32;3.60;;;;;23.70;101705.00;;;;9857632;30;20943;-80
2021/08/13 08:04:57;;;;;;;5.82;3.83;;;;;23.80;101708.00;;;;9851460;29;20216;-80
2021/08/13 08:09:59;;;;;;;7.50;4.00;;;;;23.70;101713.00;;;;9882300;29;20250;-80
2021/08/13 08:15:02;;;;;;;7.00;3.88;;;;;23.80;101729.00;;;;9896635;29;20275;-80
2021/08/13 08:20:06;;;;;;;7.78;3.15;;;;;24.30;101728.00;;;;9881896;29;20232;-80
2021/08/13 08:25:08;;;;;;;9.57;3.63;;;;;24.50;101726.00;;;;9895783;29;20226;-80
2021/08/13 08:30:11;;;;;;;5.15;3.10;;;;;24.50;101720.00;;;;9893208;29;20550;-80
2021/08/13 08:35:13;;;;;;;7.45;3.10;;;;;24.60;101718.00;;;;9858534;30;20646;-79
2021/08/13 08:40:16;;;;;;;3.85;2.60;;;;;25.00;101712.00;;;;9849363;30;20231;-81
2021/08/13 08:45:22;;;;;;;7.53;2.80;;;;;24.90;101744.00;;;;9869441;29;20210;-81
2021/08/13 08:50:25;;;;;;;4.03;2.63;;;;;25.40;101755.00;;;;9881496;29;20767;-80
2021/08/13 08:55:27;;;;;;;5.00;2.53;;;;;26.20;101749.00;;;;9899110;29;20212;-81
2021/08/13 09:00:29;;;;;;;5.47;2.55;;;;;26.20;101764.00;;;;9897019;29;20220;-81
2021/08/13 09:05:32;;;;;;;4.78;2.53;;;;;26.30;101758.00;;;;9891044;29;20280;-80
2021/08/13 09:10:34;;;;;;;5.18;2.63;;;;;26.30;101758.00;;;;9876852;29;20219;-81
2021/08/13 09:15:41;;;;;;;3.50;2.67;;;;;26.70;101753.00;;;;9891649;29;20215;-80
2021/08/13 09:20:56;;;;;;;5.30;3.42;;;;;27.30;101753.00;;;;9855865;30;20270;-81
2021/08/13 09:26:00;;;;;;;4.28;2.50;;;;;27.30;101746.00;;;;9878553;29;20233;-80
2021/08/13 09:31:26;;;;;;;3.55;2.50;;;;;27.50;101757.00;;;;9907029;29;20203;-79
2021/08/13 09:36:32;;;;;;;6.07;2.67;;;;;27.40;101754.00;;;;9877491;29;20219;-81
2021/08/13 09:41:46;;;;;;;4.00;2.47;;;;;27.30;101759.00;;;;9870220;29;20232;-81
2021/08/13 09:47:04;;;;;;;7.10;2.67;;;;;27.20;101762.00;;;;9881136;29;20207;-81
2021/08/13 09:52:16;;;;;;;6.15;2.67;;;;;28.00;101758.00;;;;9861970;29;20215;-80
2021/08/13 09:57:19;;;;;;;4.47;2.78;;;;;28.10;101762.00;;;;9862825;29;20339;-80
2021/08/13 10:02:22;;;;;;;5.55;3.03;;;;;28.50;101758.00;;;;9891555;29;20228;-81
2021/08/13 10:07:24;;;;;;;4.18;2.50;;;;;28.30;101747.00;;;;9907402;29;20212;-81
2021/08/13 10:12:26;;;;;;;3.25;2.78;;;;;29.00;101742.00;;;;9875546;29;20222;-81
2021/08/13 10:17:28;;;;;;;3.53;2.88;;;;;29.30;101734.00;;;;9890085;29;20239;-82
2021/08/13 10:22:38;;;;;;;4.32;3.10;;;;;30.10;101725.00;;;;9895380;29;20214;-82
2021/08/13 10:27:41;;;;;;;4.55;3.30;;;;;30.50;101737.00;;;;9848819;30;20243;-81
2021/08/13 10:32:51;;;;;;;4.32;3.55;;;;;30.70;101735.00;;;;9890721;29;20260;-81
2021/08/13 10:37:53;;;;;;;6.55;3.20;;;;;30.20;101738.00;;;;9890756;29;20236;-81
2021/08/13 10:42:56;;;;;;;6.20;3.60;;;;;30.00;101727.00;;;;9881053;29;20261;-81
2021/08/13 10:48:14;;;;;;;5.03;3.22;;;;;30.20;101739.00;;;;9911321;29;20221;-79
2021/08/13 10:53:24;;;;;;;11.38;3.97;;;;;30.50;101744.00;;;;9892320;29;20259;-82
2021/08/13 10:58:36;;;;;;;9.85;3.65;;;;;29.90;101754.00;;;;9880411;29;20224;-81
2021/08/13 11:04:04;;;;;;;4.53;3.13;;;;;30.80;101754.00;;;;9855150;30;20218;-79
2021/08/13 11:09:25;;;;;;;8.23;3.70;;;;;31.10;101764.00;;;;9866911;29;20226;-82
2021/08/13 11:14:55;;;;;;;6.93;3.58;;;;;30.60;101759.00;;;;9853482;29;20257;-82
2021/08/13 11:20:08;;;;;;;7.43;3.22;;;;;30.20;101761.00;;;;9879159;29;20232;-81
2021/08/13 11:25:15;;;;;;;8.05;3.67;;;;;29.90;101756.00;;;;9869032;29;20224;-82
2021/08/13 11:30:47;;;;;;;4.63;3.08;;;;;29.90;101769.00;;;;9882233;29;20224;-81
2021/08/13 11:35:51;;;;;;;10.15;3.88;;;;;30.30;101772.00;;;;9895585;29;20234;-79
2021/08/13 11:40:53;;;;;;;4.93;3.58;;;;;30.40;101771.00;;;;9873995;29;20232;-81
2021/08/13 11:46:00;;;;;;;4.80;3.20;;;;;30.10;101778.00;;;;9864382;29;20245;-81
2021/08/13 11:51:07;;;;;;;3.85;3.20;;;;;29.30;101777.00;;;;9911287;29;20218;-81
2021/08/13 11:56:30;;;;;;;5.18;3.13;;;;;28.60;101771.00;;;;9887174;29;20298;-81
2021/08/13 12:01:53;;;;;;;4.03;2.83;;;;;28.20;101770.00;;;;9898987;29;20285;-82
2021/08/13 12:07:08;;;;;;;3.70;3.20;;;;;28.70;101767.00;;;;9892764;29;20211;-81
2021/08/13 12:12:15;;;;;;;5.53;3.10;;;;;29.60;101763.00;;;;9882341;29;20221;-82
2021/08/13 12:17:20;;;;;;;6.15;3.20;;;;;30.50;101769.00;;;;9895410;29;20227;-82
2021/08/13 12:22:34;;;;;;;5.30;3.38;;;;;30.80;101766.00;;;;9893896;29;20223;-82
2021/08/13 12:27:41;;;;;;;5.03;2.92;;;;;30.60;101754.00;;;;9874516;30;20218;-81
2021/08/13 12:32:44;;;;;;;6.90;3.35;;;;;30.50;101763.00;;;;9846285;30;20343;-82
2021/08/13 12:37:46;;;;;;;6.00;3.55;;;;;30.00;101775.00;;;;9867129;29;20317;-81
2021/08/13 12:42:51;;;;;;;3.55;3.13;;;;;29.20;101768.00;;;;9888265;29;20212;-82
2021/08/13 12:47:55;;;;;;;6.57;3.03;;;;;28.30;101762.00;;;;9836814;30;20231;-81
2021/08/13 12:53:07;;;;;;;6.50;3.70;;;;;28.30;101764.00;;;;9834710;29;20223;-82
2021/08/13 12:58:33;;;;;;;6.70;3.60;;;;;28.60;101763.00;;;;9896248;29;20231;-82
2021/08/13 13:03:39;;;;;;;5.05;2.63;;;;;28.80;101770.00;;;;9910339;29;20242;-82
2021/08/13 13:08:43;;;;;;;6.15;3.25;;;;;29.70;101751.00;;;;9882908;29;20211;-81
2021/08/13 13:13:50;;;;;;;5.82;3.83;;;;;29.70;101760.00;;;;9898297;29;20221;-82
2021/08/13 13:18:52;;;;;;;7.32;3.30;;;;;29.90;101767.00;;;;9882261;29;20219;-82
2021/08/13 13:23:57;;;;;;;13.80;3.40;;;;;29.90;101775.00;;;;9838520;29;20235;-80
2021/08/13 13:29:33;;;;;;;9.55;3.40;;;;;29.80;101771.00;;;;9862785;30;20260;-84
2021/08/13 13:34:52;;;;;;;5.78;3.05;;;;;29.40;101779.00;;;;9880805;29;20301;-81
2021/08/13 13:40:09;;;;;;;6.70;3.92;;;;;29.50;101764.00;;;;9878178;29;20286;-80
2021/08/13 13:45:13;;;;;;;5.07;3.78;;;;;29.80;101761.00;;;;9892623;29;20571;-79
2021/08/13 13:50:16;;;;;;;6.28;3.58;;;;;29.50;101753.00;;;;9907330;29;20216;-80
2021/08/13 13:55:19;;;;;;;6.53;3.45;;;;;30.30;101759.00;;;;9893525;29;20251;-80
2021/08/13 14:00:22;;;;;;;8.52;4.00;;;;;30.60;101747.00;;;;9930166;29;20276;-80
2021/08/13 14:05:28;;;;;;;6.35;3.75;;;;;31.10;101742.00;;;;9910765;29;20207;-81
2021/08/13 14:10:31;;;;;;;9.32;4.05;;;;;30.90;101741.00;;;;9877340;29;20223;-80
2021/08/13 14:15:36;;;;;;;6.50;3.25;;;;;31.20;101752.00;;;;9894075;29;20331;-81
2021/08/13 14:20:39;;;;;;;7.80;2.95;;;;;32.30;101751.00;;;;9933090;29;20788;-84
2021/08/13 14:25:41;;;;;;;12.80;3.95;;;;;34.20;101750.00;;;;9893381;29;20980;-81
2021/08/13 14:30:44;;;;;;;6.60;3.47;;;;;35.60;101747.00;;;;9869435;29;20256;-82
2021/08/13 14:35:46;;;;;;;8.27;3.70;;;;;36.30;101741.00;;;;9897581;29;20310;-80
2021/08/13 14:40:49;;;;;;;6.63;3.10;;;;;36.50;101739.00;;;;9897930;29;20259;-79
2021/08/13 14:45:51;;;;;;;6.57;3.00;;;;;36.10;101736.00;;;;9893802;29;20889;-81
2021/08/13 14:50:53;;;;;;;4.95;3.00;;;;;35.30;101717.00;;;;9934301;29;20290;-82
2021/08/13 14:55:55;;;;;;;4.68;2.53;;;;;34.80;101719.00;;;;9907953;29;20748;-81
2021/08/13 15:00:59;;;;;;;11.45;3.72;;;;;33.40;101736.00;;;;9934513;29;20227;-81
2021/08/13 15:06:02;;;;;;;5.40;3.45;;;;;31.40;101727.00;;;;9908447;29;20264;-81
2021/08/13 15:11:04;;;;;;;8.32;3.67;;;;;29.60;101727.00;;;;9895742;29;20215;-82
2021/08/13 15:16:07;;;;;;;6.60;2.97;;;;;29.60;101710.00;;;;9883269;29;20615;-81
2021/08/13 15:21:10;;;;;;;7.30;3.28;;;;;29.80;101705.00;;;;9868577;29;20937;-81
2021/08/13 15:26:12;;;;;;;5.00;2.92;;;;;29.20;101706.00;;;;9895555;29;20216;-81
2021/08/13 15:31:14;;;;;;;8.30;3.13;;;;;29.00;101712.00;;;;9895875;29;20203;-81
2021/08/13 15:36:17;;;;;;;5.90;2.78;;;;;29.10;101701.00;;;;9867636;29;20625;-80
2021/08/13 15:41:19;;;;;;;5.75;3.08;;;;;28.50;101703.00;;;;9874829;30;20243;-81
2021/08/13 15:46:21;;;;;;;6.28;3.10;;;;;28.70;101707.00;;;;9893763;29;20207;-81
2021/08/13 15:51:23;;;;;;;7.75;3.53;;;;;28.30;101712.00;;;;9881403;29;20310;-81
2021/08/13 15:56:26;;;;;;;7.55;3.42;;;;;28.20;101706.00;;;;9885659;29;20625;-82
2021/08/13 16:01:30;;;;;;;8.18;3.17;;;;;28.20;101702.00;;;;9901917;29;20318;-81
2021/08/13 16:06:33;;;;;;;5.15;2.83;;;;;27.80;101705.00;;;;9881078;29;20215;-81
2021/08/13 16:11:36;;;;;;;8.60;3.35;;;;;27.50;101708.00;;;;9872918;29;20212;-81
2021/08/13 16:16:38;;;;;;;8.27;3.20;;;;;27.20;101714.00;;;;9904562;29;20684;-80
2021/08/13 16:21:44;;;;;;;6.25;3.45;;;;;27.20;101718.00;;;;9880513;29;20371;-80
2021/08/13 16:26:45;;;;;;;8.57;3.60;;;;;27.10;101707.00;;;;9871634;29;20215;-82
2021/08/13 16:31:47;;;;;;;7.07;3.72;;;;;26.80;101712.00;;;;9903342;29;20206;-81
2021/08/13 16:36:50;;;;;;;6.63;3.47;;;;;26.50;101715.00;;;;9902470;29;20227;-81
2021/08/13 16:41:52;;;;;;;6.00;3.30;;;;;26.10;101715.00;;;;9895062;29;20227;-82
2021/08/13 16:46:53;;;;;;;11.30;3.25;;;;;25.50;101708.00;;;;9896246;29;20625;-81
2021/08/13 16:51:55;;;;;;;9.70;4.10;;;;;25.00;101715.00;;;;9881340;29;20211;-81
2021/08/13 16:56:57;;;;;;;8.73;4.10;;;;;24.80;101718.00;;;;9889962;29;20245;-81
2021/08/13 17:02:03;;;;;;;7.88;3.63;;;;;24.70;101718.00;;;;9880575;29;20922;-81
2021/08/13 17:07:05;;;;;;;7.03;3.63;;;;;24.90;101720.00;;;;9867162;29;20235;-81
2021/08/13 17:12:08;;;;;;;9.15;3.78;;;;;25.10;101715.00;;;;9909882;29;20207;-81
2021/08/13 17:17:09;;;;;;;7.43;3.53;;;;;24.60;101710.00;;;;9882411;29;20245;-81
2021/08/13 17:22:11;;;;;;;4.50;2.90;;;;;24.20;101713.00;;;;9855260;29;20297;-80
2021/08/13 17:27:13;;;;;;;9.55;3.05;;;;;23.80;101720.00;;;;9896924;29;20215;-81
2021/08/13 17:32:15;;;;;;;4.65;2.00;;;;;23.40;101712.00;;;;9861491;30;20258;-80
2021/08/13 17:37:25;;;;;;;7.25;2.78;;;;;23.20;101721.00;;;;9885032;29;20238;-81
2021/08/13 17:42:27;;;;;;;5.90;2.28;;;;;23.00;101719.00;;;;9900657;29;20227;-80
2021/08/13 17:47:29;;;;;;;6.43;2.42;;;;;22.90;101715.00;;;;9879902;29;20644;-81
2021/08/13 17:52:31;;;;;;;9.82;2.30;;;;;22.80;101721.00;;;;9880570;30;20309;-80
2021/08/13 17:57:33;;;;;;;6.78;2.70;;;;;22.70;101708.00;;;;9870512;30;20204;-81
2021/08/13 18:02:39;;;;;;;6.85;2.60;;;;;22.50;101712.00;;;;9921513;29;20262;-81
2021/08/13 18:07:41;;;;;;;10.68;2.90;;;;;22.30;101721.00;;;;9893999;29;20235;-80
2021/08/13 18:12:43;;;;;;;6.30;2.60;;;;;22.20;101713.00;;;;9922981;29;20207;-81
2021/08/13 18:17:44;;;;;;;9.60;2.90;;;;;22.00;101710.00;;;;9902710;29;20563;-80
2021/08/13 18:22:47;;;;;;;8.48;2.78;;;;;21.80;101713.00;;;;9868297;30;20243;-80
2021/08/13 18:27:49;;;;;;;8.18;2.47;;;;;21.60;101709.00;;;;9856274;30;20244;-80
2021/08/13 18:32:52;;;;;;;6.65;2.83;;;;;21.30;101710.00;;;;9870607;30;20242;-80
2021/08/13 18:37:54;;;;;;;7.80;2.72;;;;;21.00;101708.00;;;;9840680;30;20235;-80
2021/08/13 18:42:56;;;;;;;10.95;2.88;;;;;20.70;101701.00;;;;9855543;30;20236;-80
2021/08/13 18:48:00;;;;;;;9.30;2.95;;;;;20.40;101703.00;;;;9854674;30;20208;-79
2021/08/13 18:53:02;;;;;;;8.10;2.67;;;;;20.30;101715.00;;;;9867829;29;20204;-80
2021/08/13 18:58:04;;;;;;;9.13;2.60;;;;;20.20;101720.00;;;;9876795;29;20204;-80
2021/08/13 19:03:07;;;;;;;8.15;2.58;;;;;19.90;101719.00;;;;9889901;29;20247;-80
2021/08/13 19:08:09;;;;;;;7.97;3.50;;;;;19.60;101715.00;;;;9904625;29;20237;-80
2021/08/13 19:13:11;;;;;;;10.73;3.00;;;;;19.30;101725.00;;;;9919770;29;20613;-79
2021/08/13 19:18:13;;;;;;;7.78;2.65;;;;;19.10;101727.00;;;;9904441;29;20219;-80
2021/08/13 19:23:15;;;;;;;5.32;2.75;;;;;18.90;101730.00;;;;9883532;29;20232;-80
2021/08/13 19:28:17;;;;;;;7.03;3.50;;;;;18.60;101737.00;;;;9852515;30;20244;-80
2021/08/13 19:33:19;;;;;;;14.68;3.83;;;;;18.50;101743.00;;;;9881330;30;20262;-81
2021/08/13 19:38:21;;;;;;;8.85;3.13;;;;;18.30;101752.00;;;;9881085;30;20285;-80
2021/08/13 19:43:23;;;;;;;10.25;3.33;;;;;18.20;101760.00;;;;9866473;30;20232;-80
2021/08/13 19:48:25;;;;;;;12.48;3.67;;;;;18.00;101766.00;;;;9881708;29;20559;-81
2021/08/13 19:53:27;;;;;;;8.20;3.53;;;;;17.90;101770.00;;;;9891083;29;20220;-80
2021/08/13 19:58:29;;;;;;;10.73;3.73;;;;;17.80;101770.00;;;;9902416;29;20253;-80
2021/08/13 20:03:31;;;;;;;7.05;3.30;;;;;17.70;101771.00;;;;9895199;29;20231;-80
2021/08/13 20:08:33;;;;;;;9.77;3.47;;;;;17.60;101769.00;;;;9879260;29;20215;-79
2021/08/13 20:13:35;;;;;;;9.07;3.72;;;;;17.50;101776.00;;;;9911034;29;20216;-79
2021/08/13 20:18:37;;;;;;;10.95;3.60;;;;;17.30;101773.00;;;;9910591;29;20223;-80
2021/08/13 20:23:39;;;;;;;11.70;3.88;;;;;17.30;101771.00;;;;9871272;30;20238;-79
2021/08/13 20:28:41;;;;;;;10.95;3.72;;;;;17.20;101772.00;;;;9850387;29;20243;-79
2021/08/13 20:33:45;;;;;;;14.35;3.97;;;;;17.10;101771.00;;;;9882213;29;20241;-80
2021/08/13 20:38:47;;;;;;;10.23;3.73;;;;;17.10;101770.00;;;;9881882;29;20219;-79
2021/08/13 20:43:49;;;;;;;8.60;3.33;;;;;17.00;101774.00;;;;9881678;29;20260;-79
2021/08/13 20:48:51;;;;;;;6.72;3.10;;;;;17.00;101777.00;;;;9881370;29;20207;-79
2021/08/13 20:53:53;;;;;;;6.38;2.92;;;;;17.00;101782.00;;;;9865702;29;20219;-79
2021/08/13 20:58:54;;;;;;;8.00;2.65;;;;;16.90;101778.00;;;;9880773;29;20284;-80
2021/08/13 21:03:56;;;;;;;11.73;3.23;;;;;16.90;101777.00;;;;9881516;29;20235;-80
2021/08/13 21:09:00;;;;;;;14.10;3.50;;;;;16.80;101778.00;;;;9901596;29;20246;-80
2021/08/13 21:14:03;;;;;;;8.10;3.20;;;;;16.80;101778.00;;;;9879796;29;20287;-80
2021/08/13 21:19:04;;;;;;;6.57;3.03;;;;;16.70;101779.00;;;;9865437;29;20234;-80
2021/08/13 21:24:06;;;;;;;11.80;3.37;;;;;16.60;101770.00;;;;9879383;29;20293;-80
2021/08/13 21:29:08;;;;;;;10.50;2.50;;;;;16.60;101765.00;;;;9897063;29;20260;-80
2021/08/13 21:34:11;;;;;;;8.57;2.77;;;;;16.50;101771.00;;;;9910478;29;20756;-79
2021/08/13 21:39:12;;;;;;;8.80;3.20;;;;;16.50;101769.00;;;;9880640;29;20227;-79
2021/08/13 21:44:14;;;;;;;9.70;3.10;;;;;16.40;101759.00;;;;9879558;29;20207;-80
2021/08/13 21:49:16;;;;;;;8.20;3.10;;;;;16.40;101765.00;;;;9865394;29;20250;-80
2021/08/13 21:54:18;;;;;;;10.07;2.80;;;;;16.30;101758.00;;;;9922346;29;20237;-79
2021/08/13 21:59:20;;;;;;;9.60;3.53;;;;;16.30;101759.00;;;;9900826;29;20265;-80
2021/08/13 22:04:22;;;;;;;9.10;2.60;;;;;16.20;101753.00;;;;9895703;29;20208;-80
2021/08/13 22:09:24;;;;;;;12.07;4.20;;;;;16.20;101756.00;;;;9895606;29;20223;-79
2021/08/13 22:14:26;;;;;;;9.63;3.13;;;;;16.10;101751.00;;;;9894782;29;20196;-80
2021/08/13 22:19:28;;;;;;;12.37;3.60;;;;;16.00;101750.00;;;;9895213;29;20231;-79
2021/08/13 22:24:29;;;;;;;6.70;2.97;;;;;15.90;101743.00;;;;9879112;29;20211;-79
2021/08/13 22:29:35;;;;;;;13.07;3.40;;;;;15.90;101744.00;;;;9893596;29;20235;-79
2021/08/13 22:34:37;;;;;;;8.87;3.60;;;;;15.90;101748.00;;;;9916088;29;20230;-80
2021/08/13 22:39:39;;;;;;;8.20;2.90;;;;;15.80;101746.00;;;;9938302;29;20291;-79
2021/08/13 22:44:41;;;;;;;11.87;3.83;;;;;15.70;101737.00;;;;9930667;29;20199;-79
2021/08/13 22:49:42;;;;;;;7.67;3.00;;;;;15.60;101743.00;;;;9914409;29;20660;-80
2021/08/13 22:54:44;;;;;;;8.43;3.67;;;;;15.50;101750.00;;;;9900286;29;20234;-79
2021/08/13 22:59:46;;;;;;;11.77;4.27;;;;;15.40;101739.00;;;;9899235;29;20276;-79
2021/08/13 23:04:48;;;;;;;13.33;3.60;;;;;15.30;101751.00;;;;9899818;29;20245;-80
2021/08/13 23:09:50;;;;;;;11.37;3.53;;;;;15.30;101753.00;;;;9883999;29;20207;-79
2021/08/13 23:14:53;;;;;;;10.83;3.50;;;;;15.20;101766.00;;;;9898358;29;20210;-79
2021/08/13 23:19:54;;;;;;;12.43;3.70;;;;;15.20;101765.00;;;;9884443;29;20258;-79
2021/08/13 23:24:56;;;;;;;10.33;3.77;;;;;15.20;101768.00;;;;9899457;29;20211;-79
2021/08/13 23:29:58;;;;;;;8.27;3.87;;;;;15.00;101755.00;;;;9899694;29;20203;-79
2021/08/13 23:35:02;;;;;;;8.33;3.27;;;;;14.90;101764.00;;;;9833056;30;20219;-79
2021/08/13 23:40:06;;;;;;;11.00;3.90;;;;;14.70;101764.00;;;;9896953;29;20227;-80
2021/08/13 23:45:10;;;;;;;9.17;3.77;;;;;14.70;101760.00;;;;9898554;29;20203;-80
2021/08/13 23:50:12;;;;;;;9.27;3.43;;;;;14.60;101758.00;;;;9896740;29;20882;-79
2021/08/13 23:55:14;;;;;;;16.43;4.27;;;;;14.50;101761.00;;;;9880031;29;20626;-79
